createdAt,value
2018-09-24T00:01:50.081Z,94767.47
2018-09-24T00:04:18.863Z,94768.84
2018-09-24T00:06:47.743Z,94767.53
2018-09-24T00:09:16.379Z,94761.69
2018-09-24T00:11:45.148Z,94764.98
2018-09-24T00:14:13.811Z,94749.28
2018-09-24T00:16:42.697Z,94754.68
2018-09-24T00:19:11.335Z,94734.09
2018-09-24T00:21:39.965Z,94742.60
2018-09-24T00:24:08.632Z,94744.36
2018-09-24T00:26:37.336Z,94736.17
2018-09-24T00:29:06.061Z,94729.92
2018-09-24T00:31:34.711Z,94728.60
2018-09-24T00:34:03.368Z,94722.02
2018-09-24T00:36:32.023Z,94715.14
2018-09-24T00:39:00.758Z,94716.83
2018-09-24T00:41:29.392Z,94715.23
2018-09-24T00:43:58.090Z,94716.52
2018-09-24T00:46:26.767Z,94711.50
2018-09-24T00:48:55.485Z,94708.62
2018-09-24T00:51:24.171Z,94702.14
2018-09-24T00:53:52.882Z,94704.52
2018-09-24T00:56:21.566Z,94690.59
2018-09-24T00:58:50.375Z,94702.55
2018-09-24T01:01:19.018Z,94699.56
2018-09-24T01:03:47.704Z,94690.06
2018-09-24T01:06:16.461Z,94693.75
2018-09-24T01:08:45.191Z,94688.55
2018-09-24T01:11:13.932Z,94685.22
2018-09-24T01:13:42.614Z,94687.63
2018-09-24T01:16:11.449Z,94688.23
2018-09-24T01:18:40.120Z,94691.61
2018-09-24T01:21:08.844Z,94672.03
2018-09-24T01:23:37.768Z,94676.52
2018-09-24T01:26:06.551Z,94676.81
2018-09-24T01:28:35.274Z,94679.14
2018-09-24T01:31:04.044Z,94669.84
2018-09-24T01:33:32.740Z,94671.61
2018-09-24T01:36:01.519Z,94667.72
2018-09-24T01:38:30.220Z,94650.68
2018-09-24T01:40:58.921Z,94651.83
2018-09-24T01:43:27.702Z,94651.42
2018-09-24T01:45:56.446Z,94636.49
2018-09-24T01:48:25.136Z,94636.36
2018-09-24T01:50:53.808Z,94633.73
2018-09-24T01:53:22.563Z,94639.73
2018-09-24T01:55:52.441Z,94639.03
2018-09-24T01:58:21.342Z,94649.03
2018-09-24T02:00:50.094Z,94652.38
2018-09-24T02:03:18.755Z,94644.00
2018-09-24T02:05:47.674Z,94639.88
2018-09-24T02:08:16.423Z,94648.29
2018-09-24T02:10:45.174Z,94648.98
2018-09-24T02:13:13.824Z,94646.10
2018-09-24T02:15:42.589Z,94641.91
2018-09-24T02:18:11.296Z,94632.31
2018-09-24T02:20:47.345Z,94638.36
2018-09-24T02:23:16.529Z,94626.59
2018-09-24T02:25:45.263Z,94635.08
2018-09-24T02:28:14.038Z,94617.80
2018-09-24T02:30:42.829Z,94622.39
2018-09-24T02:33:13.158Z,94612.16
2018-09-24T02:35:48.999Z,94620.91
2018-09-24T02:38:18.380Z,94618.09
2018-09-24T02:40:47.082Z,94618.43
2018-09-24T02:43:21.978Z,94611.38
2018-09-24T02:45:50.995Z,94610.63
2018-09-24T02:48:19.695Z,94621.08
2018-09-24T02:50:48.392Z,94603.58
2018-09-24T02:53:17.148Z,94604.06
2018-09-24T02:55:45.795Z,94616.42
2018-09-24T02:58:19.736Z,94613.09
2018-09-24T03:00:48.567Z,94614.89
2018-09-24T03:03:17.664Z,94603.83
2018-09-24T03:05:46.369Z,94606.63
2018-09-24T03:08:15.306Z,94596.63
2018-09-24T03:10:44.094Z,94593.79
2018-09-24T03:13:12.756Z,94588.20
2018-09-24T03:15:42.292Z,94597.69
2018-09-24T03:18:11.559Z,94591.73
2018-09-24T03:20:42.448Z,94598.42
2018-09-24T03:23:11.257Z,94591.59
2018-09-24T03:25:40.392Z,94588.88
2018-09-24T03:28:09.070Z,94602.73
2018-09-24T03:30:41.543Z,94602.97
2018-09-24T03:33:10.313Z,94574.34
2018-09-24T03:35:39.045Z,94604.33
2018-09-24T03:38:07.709Z,94557.34
2018-09-24T03:40:36.469Z,94581.85
2018-09-24T03:43:05.287Z,94588.80
2018-09-24T03:45:33.972Z,94572.56
2018-09-24T03:48:02.631Z,94591.90
2018-09-24T03:50:31.305Z,94562.08
2018-09-24T03:53:00.033Z,94599.26
2018-09-24T03:55:28.698Z,94558.66
2018-09-24T03:57:57.456Z,94565.70
2018-09-24T04:00:26.096Z,94574.39
2018-09-24T04:02:54.794Z,94575.89
2018-09-24T04:05:28.647Z,94578.41
2018-09-24T04:08:02.524Z,94546.84
2018-09-24T04:10:36.471Z,94577.47
2018-09-24T04:13:10.375Z,94572.66
2018-09-24T04:15:44.456Z,94565.44
2018-09-24T04:18:18.366Z,94566.00
2018-09-24T04:20:52.184Z,94561.16
2018-09-24T04:23:26.175Z,94572.53
2018-09-24T04:26:00.146Z,94556.53
2018-09-24T04:28:34.033Z,94573.84
2018-09-24T04:31:07.891Z,94559.83
2018-09-24T04:33:41.821Z,94560.75
2018-09-24T04:36:15.837Z,94566.08
2018-09-24T04:38:49.730Z,94564.13
2018-09-24T04:41:23.637Z,94558.58
2018-09-24T04:43:57.553Z,94564.73
2018-09-24T04:46:31.503Z,94566.66
2018-09-24T04:49:05.527Z,94557.14
2018-09-24T04:51:39.351Z,94562.78
2018-09-24T04:54:13.200Z,94557.50
2018-09-24T04:56:47.610Z,94558.72
2018-09-24T04:59:21.540Z,94556.98
2018-09-24T05:01:55.395Z,94558.81
2018-09-24T05:04:29.301Z,94551.32
2018-09-24T05:07:03.284Z,94553.57
2018-09-24T05:09:37.129Z,94561.38
2018-09-24T05:12:11.007Z,94560.22
2018-09-24T05:14:45.013Z,94563.36
2018-09-24T05:17:18.971Z,94563.05
2018-09-24T05:19:52.897Z,94572.14
2018-09-24T05:22:26.744Z,94570.65
2018-09-24T05:25:00.772Z,94569.28
2018-09-24T05:27:34.785Z,94567.84
2018-09-24T05:30:10.311Z,94565.83
2018-09-24T05:32:44.237Z,94567.45
2018-09-24T05:35:18.189Z,94561.47
2018-09-24T05:37:52.088Z,94556.19
2018-09-24T05:40:26.064Z,94561.09
2018-09-24T05:43:00.109Z,94558.13
2018-09-24T05:45:34.131Z,94558.33
2018-09-24T05:48:07.845Z,94549.77
2018-09-24T05:50:41.768Z,94550.79
2018-09-24T05:53:15.717Z,94547.19
2018-09-24T05:55:49.643Z,94544.23
2018-09-24T05:58:23.624Z,94541.36
2018-09-24T06:00:57.539Z,94546.20
2018-09-24T06:03:31.456Z,94554.11
2018-09-24T06:06:05.295Z,94552.81
2018-09-24T06:08:39.148Z,94551.47
2018-09-24T06:11:13.051Z,94544.77
2018-09-24T06:13:47.294Z,94549.39
2018-09-24T06:16:21.215Z,94555.95
2018-09-24T06:18:55.496Z,94561.86
2018-09-24T06:21:29.518Z,94559.45
2018-09-24T06:24:03.527Z,94568.73
2018-09-24T06:26:37.409Z,94563.29
2018-09-24T06:29:11.371Z,94570.80
2018-09-24T06:31:45.305Z,94573.53
2018-09-24T06:34:19.278Z,94570.41
2018-09-24T06:36:53.158Z,94573.93
2018-09-24T06:39:27.417Z,94570.87
2018-09-24T06:42:01.907Z,94573.20
2018-09-24T06:44:35.723Z,94571.01
2018-09-24T06:47:09.647Z,94571.45
2018-09-24T06:49:43.672Z,94565.70
2018-09-24T06:52:18.301Z,94566.87
2018-09-24T06:54:52.104Z,94562.59
2018-09-24T06:57:25.972Z,94569.67
2018-09-24T06:59:59.943Z,94567.59
2018-09-24T07:02:33.773Z,94564.98
2018-09-24T07:05:07.623Z,94566.51
2018-09-24T07:07:41.665Z,94555.75
2018-09-24T07:10:15.640Z,94556.80
2018-09-24T07:12:49.498Z,94544.16
2018-09-24T07:15:23.461Z,94543.36
2018-09-24T07:17:57.378Z,94546.95
2018-09-24T07:20:31.370Z,94540.12
2018-09-24T07:23:05.288Z,94544.75
2018-09-24T07:25:39.119Z,94540.48
2018-09-24T07:28:13.128Z,94541.17
2018-09-24T07:30:47.065Z,94539.61
2018-09-24T07:33:21.848Z,94532.97
2018-09-24T07:35:55.687Z,94536.16
2018-09-24T07:38:29.593Z,94536.68
2018-09-24T07:41:03.611Z,94533.89
2018-09-24T07:43:37.636Z,94525.87
2018-09-24T07:46:11.440Z,94525.10
2018-09-24T07:48:52.260Z,94526.78
2018-09-24T07:51:26.161Z,94531.16
2018-09-24T07:54:00.162Z,94533.72
2018-09-24T07:56:34.093Z,94525.95
2018-09-24T07:59:08.046Z,94523.06
2018-09-24T08:01:41.890Z,94520.42
2018-09-24T08:04:15.810Z,94521.00
2018-09-24T08:06:49.653Z,94517.02
2018-09-24T08:09:23.689Z,94522.80
2018-09-24T08:11:57.675Z,94512.41
2018-09-24T08:14:31.500Z,94514.14
2018-09-24T08:17:05.439Z,94515.89
2018-09-24T08:19:39.414Z,94514.72
2018-09-24T08:22:13.313Z,94509.63
2018-09-24T08:24:47.136Z,94512.92
2018-09-24T08:27:21.051Z,94512.48
2018-09-24T08:29:54.955Z,94517.39
2018-09-24T08:32:28.930Z,94512.79
2018-09-24T08:35:02.952Z,94510.25
2018-09-24T08:37:36.809Z,94513.53
2018-09-24T08:40:10.638Z,94505.66
2018-09-24T08:42:44.439Z,94500.17
2018-09-24T08:45:18.408Z,94502.94
2018-09-24T08:47:52.449Z,94497.14
2018-09-24T08:50:26.436Z,94500.38
2018-09-24T08:53:00.398Z,94499.46
2018-09-24T08:55:34.293Z,94498.16
2018-09-24T08:58:08.263Z,94498.18
2018-09-24T09:00:42.148Z,94495.81
2018-09-24T09:03:16.109Z,94492.11
2018-09-24T09:05:50.033Z,94495.06
2018-09-24T09:08:24.009Z,94496.66
2018-09-24T09:10:57.779Z,94490.34
2018-09-24T09:13:31.705Z,94484.48
2018-09-24T09:16:05.507Z,94476.50
2018-09-24T09:18:39.454Z,94473.31
2018-09-24T09:21:13.377Z,94476.77
2018-09-24T09:23:47.275Z,94474.65
2018-09-24T09:26:21.171Z,94477.02
2018-09-24T09:28:55.113Z,94480.72
2018-09-24T09:31:28.961Z,94476.73
2018-09-24T09:34:02.948Z,94475.06
2018-09-24T09:36:36.908Z,94472.64
2018-09-24T09:39:13.164Z,94471.34
2018-09-24T09:41:47.292Z,94465.23
2018-09-24T09:44:21.206Z,94466.50
2018-09-24T09:46:55.096Z,94463.21
2018-09-24T09:49:28.927Z,94462.81
2018-09-24T09:52:02.810Z,94452.87
2018-09-24T09:54:36.715Z,94449.42
2018-09-24T09:57:10.651Z,94445.88
2018-09-24T09:59:44.563Z,94438.08
2018-09-24T10:02:18.602Z,94445.31
2018-09-24T10:04:52.698Z,94445.89
2018-09-24T10:07:26.677Z,94440.64
2018-09-24T10:10:00.618Z,94438.64
2018-09-24T10:12:34.429Z,94429.66
2018-09-24T10:15:08.439Z,94427.09
2018-09-24T10:17:42.347Z,94425.25
2018-09-24T10:20:16.369Z,94428.38
2018-09-24T10:22:50.255Z,94426.84
2018-09-24T10:25:24.324Z,94434.03
2018-09-24T10:27:58.161Z,94421.05
2018-09-24T10:30:32.060Z,94418.90
2018-09-24T10:33:05.938Z,94413.73
2018-09-24T10:35:39.865Z,94409.52
2018-09-24T10:38:13.858Z,94417.86
2018-09-24T10:40:47.687Z,94408.55
2018-09-24T10:43:21.737Z,94410.19
2018-09-24T10:45:55.633Z,94407.36
2018-09-24T10:48:29.398Z,94403.68
2018-09-24T10:51:03.260Z,94401.16
2018-09-24T10:53:37.176Z,94394.95
2018-09-24T10:56:11.093Z,94397.58
2018-09-24T10:58:45.427Z,94398.30
2018-09-24T11:01:19.369Z,94401.62
2018-09-24T11:03:53.469Z,94394.38
2018-09-24T11:06:27.454Z,94419.33
2018-09-24T11:09:01.672Z,94384.75
2018-09-24T11:11:35.637Z,94390.53
2018-09-24T11:14:09.660Z,94393.66
2018-09-24T11:16:43.708Z,94381.14
2018-09-24T11:19:17.270Z,94401.28
2018-09-24T11:21:51.573Z,94401.55
2018-09-24T11:24:25.458Z,94407.59
2018-09-24T11:26:59.352Z,94388.21
2018-09-24T11:29:33.449Z,94395.80
2018-09-24T11:32:07.296Z,94398.05
2018-09-24T11:34:41.171Z,94399.60
2018-09-24T11:37:15.224Z,94411.70
2018-09-24T11:39:49.306Z,94394.85
2018-09-24T11:42:23.163Z,94391.34
2018-09-24T11:44:57.035Z,94411.06
2018-09-24T11:47:30.982Z,94422.66
2018-09-24T11:50:04.865Z,94423.08
2018-09-24T11:52:38.742Z,94444.59
2018-09-24T11:55:12.406Z,94446.24
2018-09-24T11:57:46.220Z,94445.05
2018-09-24T12:00:20.072Z,94495.38
2018-09-24T12:02:54.115Z,94512.06
2018-09-24T12:05:28.038Z,94510.34
2018-09-24T12:08:01.766Z,94505.27
2018-09-24T12:10:35.625Z,94550.20
2018-09-24T12:13:09.663Z,94530.77
2018-09-24T12:15:43.777Z,94565.36
2018-09-24T12:18:17.692Z,94577.44
2018-09-24T12:20:51.707Z,94588.52
2018-09-24T12:23:25.484Z,94635.89
2018-09-24T12:25:59.429Z,94625.30
2018-09-24T12:28:33.422Z,94619.30
2018-09-24T12:31:07.367Z,94650.55
2018-09-24T12:33:41.248Z,94695.09
2018-09-24T12:36:15.280Z,94663.93
2018-09-24T12:38:49.115Z,94697.80
2018-09-24T12:41:23.061Z,94657.78
2018-09-24T12:43:56.965Z,94657.05
2018-09-24T12:46:30.935Z,94682.46
2018-09-24T12:49:04.869Z,94676.15
2018-09-24T12:51:38.785Z,94682.72
2018-09-24T12:54:12.706Z,94678.89
2018-09-24T12:56:46.628Z,94690.48
2018-09-24T12:59:20.600Z,94754.42
2018-09-24T13:01:54.531Z,94727.14
2018-09-24T13:04:28.480Z,94738.15
2018-09-24T13:07:02.405Z,94761.92
2018-09-24T13:09:36.481Z,94740.31
2018-09-24T13:12:10.381Z,94756.47
2018-09-24T13:14:44.210Z,94775.36
2018-09-24T13:17:18.074Z,94734.50
2018-09-24T13:19:51.914Z,94767.55
2018-09-24T13:22:25.761Z,94876.58
2018-09-24T13:24:59.701Z,94836.27
2018-09-24T13:27:33.406Z,94835.71
2018-09-24T13:30:07.615Z,94811.06
2018-09-24T13:32:41.578Z,94799.48
2018-09-24T13:35:15.584Z,94805.44
2018-09-24T13:37:50.234Z,94816.65
2018-09-24T13:40:24.198Z,94814.65
2018-09-24T13:42:58.243Z,94850.52
2018-09-24T13:45:32.182Z,94851.35
2018-09-24T13:48:05.988Z,94833.83
2018-09-24T13:50:40.001Z,94876.21
2018-09-24T13:53:13.866Z,94845.97
2018-09-24T13:55:47.779Z,94845.08
2018-09-24T13:58:21.580Z,94840.97
2018-09-24T14:00:55.619Z,94841.46
2018-09-24T14:03:29.587Z,94853.84
2018-09-24T14:06:03.410Z,94863.75
2018-09-24T14:08:37.318Z,94873.25
2018-09-24T14:11:11.227Z,94865.46
2018-09-24T14:13:45.282Z,94854.97
2018-09-24T14:16:19.034Z,94875.59
2018-09-24T14:18:52.973Z,94905.08
2018-09-24T14:21:26.875Z,94883.24
2018-09-24T14:24:00.860Z,94881.00
2018-09-24T14:26:34.672Z,94888.43
2018-09-24T14:29:08.727Z,94902.46
2018-09-24T14:31:42.674Z,94878.05
2018-09-24T14:34:16.602Z,94897.62
2018-09-24T14:36:50.334Z,94895.59
2018-09-24T14:39:24.176Z,94920.25
2018-09-24T14:41:58.182Z,94908.80
2018-09-24T14:44:33.086Z,94936.83
2018-09-24T14:47:07.968Z,94942.45
2018-09-24T14:49:42.033Z,94961.32
2018-09-24T14:52:16.022Z,94941.20
2018-09-24T14:54:49.931Z,94970.55
2018-09-24T14:57:23.855Z,94949.67
2018-09-24T14:59:58.047Z,94937.38
2018-09-24T15:02:33.692Z,94927.47
2018-09-24T15:05:07.811Z,94976.25
2018-09-24T15:07:42.274Z,94990.73
2018-09-24T15:10:16.537Z,95007.72
2018-09-24T15:12:51.133Z,94987.28
2018-09-24T15:15:25.913Z,94987.68
2018-09-24T15:17:59.994Z,95017.64
2018-09-24T15:20:34.918Z,95000.09
2018-09-24T15:23:08.893Z,95003.95
2018-09-24T15:25:42.770Z,95009.88
2018-09-24T15:28:18.510Z,95010.92
2018-09-24T15:30:52.611Z,95014.89
2018-09-24T15:33:26.691Z,95005.95
2018-09-24T15:36:00.630Z,95023.00
2018-09-24T15:38:34.721Z,95027.19
2018-09-24T15:41:08.721Z,95027.98
2018-09-24T15:43:42.560Z,95012.43
2018-09-24T15:46:17.205Z,95015.87
2018-09-24T15:48:51.339Z,95029.48
2018-09-24T15:51:25.263Z,95047.44
2018-09-24T15:54:00.332Z,95049.50
2018-09-24T15:56:34.344Z,95047.18
2018-09-24T15:59:08.632Z,95068.45
2018-09-24T16:01:42.588Z,95084.14
2018-09-24T16:04:16.562Z,95092.35
2018-09-24T16:06:50.461Z,95112.30
2018-09-24T16:09:24.318Z,95085.30
2018-09-24T16:11:58.406Z,95088.53
2018-09-24T16:14:32.515Z,95099.81
2018-09-24T16:17:06.603Z,95108.14
2018-09-24T16:19:40.558Z,95123.80
2018-09-24T16:22:14.730Z,95142.11
2018-09-24T16:24:48.706Z,95133.42
2018-09-24T16:27:22.615Z,95143.05
2018-09-24T16:29:56.622Z,95142.41
2018-09-24T16:32:30.499Z,95139.02
2018-09-24T16:35:04.361Z,95140.78
2018-09-24T16:37:38.240Z,95139.80
2018-09-24T16:40:12.270Z,95144.20
2018-09-24T16:42:46.057Z,95167.87
2018-09-24T16:45:19.982Z,95183.52
2018-09-24T16:47:54.041Z,95177.31
2018-09-24T16:50:27.889Z,95151.45
2018-09-24T16:53:03.501Z,95172.95
2018-09-24T16:57:08.011Z,95169.53
2018-09-24T16:59:41.920Z,95175.38
2018-09-24T17:02:15.757Z,95185.16
2018-09-24T17:04:49.661Z,95173.42
2018-09-24T17:07:23.751Z,95207.59
2018-09-24T17:09:57.648Z,95207.90
2018-09-24T17:12:31.467Z,95207.09
2018-09-24T17:15:05.367Z,95211.16
2018-09-24T17:17:40.687Z,95209.39
2018-09-24T17:20:15.062Z,95218.02
2018-09-24T17:22:49.737Z,95219.95
2018-09-24T17:25:23.524Z,95226.16
2018-09-24T17:27:57.381Z,95242.87
2018-09-24T17:30:32.084Z,95234.42
2018-09-24T17:33:06.964Z,95248.07
2018-09-24T17:35:41.875Z,95258.56
2018-09-24T17:38:15.684Z,95265.68
2018-09-24T17:40:49.722Z,95242.27
2018-09-24T17:43:23.691Z,95247.81
2018-09-24T17:45:57.635Z,95246.52
2018-09-24T17:48:31.416Z,95271.67
2018-09-24T17:51:05.452Z,95261.44
2018-09-24T17:53:39.208Z,95246.97
2018-09-24T17:56:13.237Z,95261.42
2018-09-24T17:58:47.046Z,95266.30
2018-09-24T18:01:21.090Z,95260.13
2018-09-24T18:03:55.001Z,95270.13
2018-09-24T18:06:28.905Z,95294.62
2018-09-24T18:09:02.799Z,95282.28
2018-09-24T18:11:36.750Z,95285.04
2018-09-24T18:14:10.848Z,95293.66
2018-09-24T18:16:44.907Z,95313.02
2018-09-24T18:19:18.843Z,95311.55
2018-09-24T18:21:52.656Z,95321.13
2018-09-24T18:24:26.544Z,95312.31
2018-09-24T18:27:00.524Z,95321.63
2018-09-24T18:29:34.388Z,95324.58
2018-09-24T18:32:08.191Z,95342.64
2018-09-24T18:34:42.134Z,95341.92
2018-09-24T18:37:16.239Z,95364.14
2018-09-24T18:39:50.053Z,95349.85
2018-09-24T18:42:24.007Z,95373.00
2018-09-24T18:44:57.878Z,95362.58
2018-09-24T18:47:31.772Z,95357.31
2018-09-24T18:50:05.660Z,95368.53
2018-09-24T18:52:39.520Z,95362.33
2018-09-24T18:55:13.501Z,95372.74
2018-09-24T18:57:47.368Z,95369.52
2018-09-24T19:00:25.693Z,95355.65
2018-09-24T19:02:59.614Z,95384.55
2018-09-24T19:05:33.589Z,95377.73
2018-09-24T19:08:08.225Z,95374.95
2018-09-24T19:10:42.197Z,95404.28
2018-09-24T19:13:16.113Z,95391.73
2018-09-24T19:15:49.892Z,95412.33
2018-09-24T19:18:23.769Z,95392.97
2018-09-24T19:20:57.660Z,95389.70
2018-09-24T19:23:31.673Z,95405.41
2018-09-24T19:26:05.533Z,95412.73
2018-09-24T19:28:39.394Z,95402.84
2018-09-24T19:31:13.266Z,95397.86
2018-09-24T19:33:47.111Z,95414.39
2018-09-24T19:36:20.935Z,95413.44
2018-09-24T19:38:54.893Z,95414.46
2018-09-24T19:41:28.703Z,95410.10
2018-09-24T19:44:02.716Z,95433.84
2018-09-24T19:46:36.585Z,95429.73
2018-09-24T19:49:10.456Z,95425.50
2018-09-24T19:51:44.554Z,95416.38
2018-09-24T19:54:18.592Z,95437.19
2018-09-24T19:56:52.507Z,95430.53
2018-09-24T19:59:26.373Z,95426.30
2018-09-24T20:02:00.251Z,95439.34
2018-09-24T20:04:34.281Z,95437.00
2018-09-24T20:07:08.256Z,95447.85
2018-09-24T20:09:42.160Z,95450.83
2018-09-24T20:12:16.055Z,95456.79
2018-09-24T20:14:50.197Z,95428.20
2018-09-24T20:17:24.284Z,95453.28
2018-09-24T20:19:58.260Z,95462.20
2018-09-24T20:22:32.154Z,95437.73
2018-09-24T20:25:06.155Z,95467.03
2018-09-24T20:27:40.159Z,95461.43
2018-09-24T20:30:14.027Z,95492.45
2018-09-24T20:32:47.908Z,95465.22
2018-09-24T20:35:21.800Z,95467.09
2018-09-24T20:37:55.817Z,95484.71
2018-09-24T20:40:29.738Z,95468.19
2018-09-24T20:43:03.634Z,95485.92
2018-09-24T20:45:37.465Z,95511.47
2018-09-24T20:48:11.591Z,95492.66
2018-09-24T20:50:45.463Z,95490.83
2018-09-24T20:53:19.296Z,95500.67
2018-09-24T20:55:53.191Z,95503.73
2018-09-24T20:58:27.090Z,95500.66
2018-09-24T21:01:01.028Z,95497.09
2018-09-24T21:03:34.948Z,95501.63
2018-09-24T21:06:08.856Z,95506.73
2018-09-24T21:08:42.702Z,95520.86
2018-09-24T21:11:16.631Z,95505.19
2018-09-24T21:13:50.550Z,95500.72
2018-09-24T21:16:24.482Z,95513.09
2018-09-24T21:18:58.296Z,95508.56
2018-09-24T21:21:32.315Z,95512.55
2018-09-24T21:24:06.266Z,95516.56
2018-09-24T21:26:40.228Z,95519.09
2018-09-24T21:29:14.126Z,95523.98
2018-09-24T21:31:48.047Z,95517.72
2018-09-24T21:34:22.043Z,95529.65
2018-09-24T21:36:55.867Z,95535.34
2018-09-24T21:39:29.842Z,95525.38
2018-09-24T21:42:03.709Z,95528.16
2018-09-24T21:44:37.673Z,95522.33
2018-09-24T21:47:11.709Z,95513.00
2018-09-24T21:49:45.590Z,95512.75
2018-09-24T21:52:19.546Z,95511.46
2018-09-24T21:54:53.421Z,95522.55
2018-09-24T21:57:27.347Z,95530.12
2018-09-24T22:00:01.235Z,95521.04
2018-09-24T22:02:35.180Z,95543.63
2018-09-24T22:05:09.167Z,95528.52
2018-09-24T22:07:43.093Z,95548.66
2018-09-24T22:10:17.033Z,95534.55
2018-09-24T22:12:50.930Z,95559.02
2018-09-24T22:15:24.949Z,95544.50
2018-09-24T22:17:58.680Z,95544.64
2018-09-24T22:20:32.606Z,95552.97
2018-09-24T22:23:06.497Z,95521.66
2018-09-24T22:25:40.414Z,95542.63
2018-09-24T22:28:14.312Z,95549.19
2018-09-24T22:30:48.304Z,95555.58
2018-09-24T22:33:22.234Z,95567.52
2018-09-24T22:35:56.517Z,95577.43
2018-09-24T22:38:30.392Z,95556.41
2018-09-24T22:41:04.336Z,95559.33
2018-09-24T22:43:38.064Z,95549.33
2018-09-24T22:46:11.820Z,95550.16
2018-09-24T22:48:45.661Z,95544.48
2018-09-24T22:51:19.500Z,95558.92
2018-09-24T22:53:53.506Z,95569.38
2018-09-24T22:56:27.475Z,95559.13
2018-09-24T22:59:01.287Z,95553.34
2018-09-24T23:01:35.280Z,95565.55
2018-09-24T23:04:09.256Z,95581.88
2018-09-24T23:06:43.240Z,95568.41
2018-09-24T23:09:17.163Z,95579.70
2018-09-24T23:11:51.031Z,95570.08
2018-09-24T23:14:24.952Z,95582.73
2018-09-24T23:16:58.859Z,95578.13
2018-09-24T23:19:32.857Z,95589.77
2018-09-24T23:22:06.797Z,95590.91
2018-09-24T23:24:40.730Z,95583.73
2018-09-24T23:27:14.725Z,95595.89
2018-09-24T23:29:48.641Z,95603.57
2018-09-24T23:32:22.555Z,95588.67
2018-09-24T23:34:56.413Z,95590.61
2018-09-24T23:37:30.302Z,95594.08
2018-09-24T23:40:04.152Z,95598.53
2018-09-24T23:42:38.023Z,95597.16
2018-09-24T23:45:12.139Z,95592.92
2018-09-24T23:47:45.938Z,95604.08
2018-09-24T23:50:19.725Z,95610.91
2018-09-24T23:52:53.564Z,95607.38
2018-09-24T23:55:27.408Z,95607.75
2018-09-24T23:58:01.308Z,95613.84
